createdAt,value
2019-04-16T00:02:01.136Z,5.49
2019-04-16T00:04:56.625Z,5.35
2019-04-16T00:08:02.887Z,5.31
2019-04-16T00:10:55.713Z,5.24
2019-04-16T00:13:39.911Z,5.09
2019-04-16T00:16:13.812Z,5.13
2019-04-16T00:18:57.290Z,5.12
2019-04-16T00:21:49.637Z,5.22
2019-04-16T00:24:34.699Z,5.14
2019-04-16T00:27:08.577Z,5.00
2019-04-16T00:29:43.219Z,5.02
2019-04-16T00:32:31.499Z,4.77
2019-04-16T00:35:05.457Z,4.86
2019-04-16T00:37:40.376Z,4.82
2019-04-16T00:40:14.550Z,4.87
2019-04-16T00:42:49.980Z,4.75
2019-04-16T00:45:26.653Z,4.60
2019-04-16T00:48:00.326Z,4.62
2019-04-16T00:50:33.965Z,4.62
2019-04-16T00:53:09.312Z,4.69
2019-04-16T00:55:46.517Z,4.52
2019-04-16T00:58:20.378Z,4.57
2019-04-16T01:00:54.519Z,4.43
2019-04-16T01:03:28.308Z,4.39
2019-04-16T01:06:07.023Z,4.47
2019-04-16T01:08:37.779Z,4.37
2019-04-16T01:11:11.502Z,4.16
2019-04-16T01:13:46.555Z,4.26
2019-04-16T01:16:20.332Z,4.37
2019-04-16T01:18:55.076Z,4.35
2019-04-16T01:21:29.180Z,3.99
2019-04-16T01:24:02.877Z,4.15
2019-04-16T01:26:37.710Z,4.15
2019-04-16T01:29:16.707Z,4.12
2019-04-16T01:32:10.269Z,4.03
2019-04-16T01:34:54.855Z,4.00
2019-04-16T01:38:04.112Z,4.03
2019-04-16T01:40:55.688Z,3.85
2019-04-16T01:43:29.385Z,3.82
2019-04-16T01:46:04.855Z,3.68
2019-04-16T01:48:42.130Z,3.68
2019-04-16T01:51:16.295Z,3.65
2019-04-16T01:53:52.279Z,3.49
2019-04-16T01:56:28.797Z,3.42
2019-04-16T01:59:05.915Z,3.34
2019-04-16T02:01:40.332Z,3.55
2019-04-16T02:04:19.832Z,3.50
2019-04-16T02:06:54.325Z,3.33
2019-04-16T02:09:34.236Z,3.50
2019-04-16T02:12:06.860Z,3.34
2019-04-16T02:14:41.075Z,3.40
2019-04-16T02:17:14.736Z,3.50
2019-04-16T02:19:48.498Z,3.44
2019-04-16T02:22:22.290Z,3.53
2019-04-16T02:24:55.911Z,3.39
2019-04-16T02:27:31.039Z,3.49
2019-04-16T02:30:05.918Z,3.24
2019-04-16T02:32:39.749Z,3.17
2019-04-16T02:35:13.761Z,3.35
2019-04-16T02:37:47.509Z,3.32
2019-04-16T02:40:21.432Z,3.16
2019-04-16T02:42:56.762Z,3.11
2019-04-16T02:45:30.489Z,2.94
2019-04-16T02:48:04.303Z,2.82
2019-04-16T02:50:48.647Z,2.98
2019-04-16T02:53:40.155Z,2.94
2019-04-16T02:56:52.056Z,2.78
2019-04-16T02:59:27.789Z,2.66
2019-04-16T03:02:11.856Z,2.55
2019-04-16T03:04:51.446Z,2.63
2019-04-16T03:07:25.274Z,2.79
2019-04-16T03:10:01.793Z,2.74
2019-04-16T03:12:34.777Z,2.76
2019-04-16T03:15:09.097Z,2.64
2019-04-16T03:17:45.487Z,2.60
2019-04-16T03:20:20.728Z,2.57
2019-04-16T03:22:55.024Z,2.64
2019-04-16T03:25:28.650Z,2.56
2019-04-16T03:28:02.790Z,2.44
2019-04-16T03:30:42.391Z,2.32
2019-04-16T03:33:15.156Z,2.47
2019-04-16T03:35:49.261Z,2.31
2019-04-16T03:38:24.548Z,2.22
2019-04-16T03:40:59.569Z,2.24
2019-04-16T03:43:33.618Z,2.31
2019-04-16T03:46:12.143Z,2.30
2019-04-16T03:48:43.138Z,2.22
2019-04-16T03:51:17.185Z,2.27
2019-04-16T03:53:50.912Z,2.22
2019-04-16T03:56:27.544Z,2.22
2019-04-16T03:59:03.401Z,1.96
2019-04-16T04:01:37.120Z,2.13
2019-04-16T04:04:13.478Z,2.26
2019-04-16T04:06:48.713Z,2.12
2019-04-16T04:09:22.969Z,2.09
2019-04-16T04:11:57.079Z,2.03
2019-04-16T04:14:31.858Z,1.96
2019-04-16T04:17:07.059Z,1.93
2019-04-16T04:19:46.157Z,1.97
2019-04-16T04:22:19.235Z,1.99
2019-04-16T04:24:53.360Z,2.01
2019-04-16T04:27:27.058Z,1.95
2019-04-16T04:30:02.503Z,1.96
2019-04-16T04:32:47.614Z,1.92
2019-04-16T04:35:22.319Z,1.84
2019-04-16T04:37:56.838Z,1.92
2019-04-16T04:40:44.507Z,1.85
2019-04-16T04:43:10.835Z,1.93
2019-04-16T04:45:44.496Z,1.97
2019-04-16T04:48:22.962Z,2.06
2019-04-16T04:50:53.570Z,1.97
2019-04-16T04:53:27.729Z,1.95
2019-04-16T04:56:01.470Z,1.99
2019-04-16T04:58:36.808Z,2.11
2019-04-16T05:01:13.627Z,2.18
2019-04-16T05:04:03.172Z,2.41
2019-04-16T05:06:38.360Z,3.25
2019-04-16T05:09:13.642Z,3.98
2019-04-16T05:11:48.575Z,4.60
2019-04-16T05:14:25.961Z,4.93
2019-04-16T05:17:03.654Z,5.31
2019-04-16T05:19:37.648Z,4.98
2019-04-16T05:22:12.750Z,4.24
2019-04-16T05:24:46.486Z,4.89
2019-04-16T05:27:20.149Z,5.48
2019-04-16T05:29:53.900Z,6.04
2019-04-16T05:32:32.984Z,6.72
2019-04-16T05:35:09.204Z,7.29
2019-04-16T05:37:40.562Z,7.13
2019-04-16T05:40:14.435Z,7.18
2019-04-16T05:42:48.075Z,7.48
2019-04-16T05:45:21.782Z,7.79
2019-04-16T05:47:55.591Z,8.46
2019-04-16T05:50:31.112Z,8.51
2019-04-16T05:53:08.452Z,9.10
2019-04-16T05:55:57.507Z,8.62
2019-04-16T05:58:31.602Z,8.25
2019-04-16T06:01:23.947Z,8.43
2019-04-16T06:03:58.963Z,8.83
2019-04-16T06:06:32.666Z,8.83
2019-04-16T06:09:12.205Z,8.59
2019-04-16T06:11:45.560Z,8.51
2019-04-16T06:14:27.059Z,8.52
2019-04-16T06:17:31.913Z,8.47
2019-04-16T06:20:22.489Z,8.65
2019-04-16T06:23:05.913Z,8.59
2019-04-16T06:25:45.057Z,9.37
2019-04-16T06:28:36.225Z,9.18
2019-04-16T06:31:29.809Z,8.77
2019-04-16T06:34:26.071Z,9.66
2019-04-16T06:37:26.603Z,10.06
2019-04-16T06:40:19.518Z,10.68
2019-04-16T06:42:58.018Z,10.11
2019-04-16T06:45:56.780Z,10.95
2019-04-16T06:48:35.524Z,10.38
2019-04-16T06:51:31.666Z,10.21
2019-04-16T06:54:25.323Z,10.97
2019-04-16T06:57:16.663Z,11.22
2019-04-16T07:00:02.333Z,10.54
2019-04-16T07:03:02.396Z,10.89
2019-04-16T07:05:37.207Z,10.74
2019-04-16T07:08:19.884Z,11.70
2019-04-16T07:10:56.086Z,11.48
2019-04-16T07:13:29.784Z,12.29
2019-04-16T07:16:03.488Z,12.24
2019-04-16T07:18:38.682Z,12.38
2019-04-16T07:21:14.499Z,12.74
2019-04-16T07:23:49.402Z,12.10
2019-04-16T07:26:23.293Z,12.71
2019-04-16T07:29:13.400Z,12.86
2019-04-16T07:31:54.279Z,12.45
2019-04-16T07:34:44.685Z,12.79
2019-04-16T07:37:37.297Z,13.07
2019-04-16T07:40:23.846Z,12.50
2019-04-16T07:43:15.997Z,12.81
2019-04-16T07:46:01.541Z,11.63
2019-04-16T07:48:47.687Z,12.40
2019-04-16T07:51:27.535Z,11.49
2019-04-16T07:54:28.257Z,12.58
2019-04-16T07:57:01.958Z,13.03
2019-04-16T07:59:37.332Z,13.19
2019-04-16T08:02:11.636Z,12.91
2019-04-16T08:04:45.496Z,13.49
2019-04-16T08:07:20.477Z,13.32
2019-04-16T08:09:54.784Z,13.01
2019-04-16T08:12:30.650Z,13.16
2019-04-16T08:15:13.243Z,13.25
2019-04-16T08:17:40.817Z,12.86
2019-04-16T08:20:19.774Z,12.73
2019-04-16T08:22:53.141Z,12.73
2019-04-16T08:25:33.592Z,12.69
2019-04-16T08:28:07.709Z,12.53
2019-04-16T08:30:41.825Z,13.03
2019-04-16T08:33:16.568Z,13.43
2019-04-16T08:35:51.898Z,13.59
2019-04-16T08:38:26.959Z,13.25
2019-04-16T08:41:00.983Z,12.28
2019-04-16T08:43:34.653Z,12.11
2019-04-16T08:46:11.558Z,12.61
2019-04-16T08:48:48.894Z,12.84
2019-04-16T08:51:30.115Z,12.76
2019-04-16T08:53:58.173Z,13.39
2019-04-16T08:56:33.105Z,13.27
2019-04-16T08:59:10.039Z,13.01
2019-04-16T09:01:44.329Z,13.38
2019-04-16T09:04:18.007Z,13.81
2019-04-16T09:06:51.821Z,14.03
2019-04-16T09:09:36.835Z,13.20
2019-04-16T09:12:12.638Z,13.11
2019-04-16T09:14:48.668Z,13.31
2019-04-16T09:17:35.093Z,13.72
2019-04-16T09:20:15.044Z,13.58
2019-04-16T09:22:49.750Z,13.62
2019-04-16T09:25:45.681Z,13.82
2019-04-16T09:28:26.296Z,13.98
2019-04-16T09:31:09.125Z,13.97
2019-04-16T09:33:57.327Z,13.88
2019-04-16T09:37:01.290Z,13.41
2019-04-16T09:40:15.914Z,13.46
2019-04-16T09:42:38.373Z,13.84
2019-04-16T09:45:15.012Z,13.31
2019-04-16T09:47:50.595Z,13.77
2019-04-16T09:50:25.324Z,13.74
2019-04-16T09:53:01.767Z,13.82
2019-04-16T09:55:34.447Z,13.78
2019-04-16T09:58:17.088Z,13.43
2019-04-16T10:01:05.320Z,13.57
2019-04-16T10:03:41.177Z,13.82
2019-04-16T10:06:15.148Z,13.85
2019-04-16T10:08:51.660Z,13.71
2019-04-16T10:11:25.467Z,13.64
2019-04-16T10:13:59.356Z,14.50
2019-04-16T10:16:34.247Z,14.29
2019-04-16T10:19:09.076Z,14.24
2019-04-16T10:21:42.951Z,14.28
2019-04-16T10:24:38.964Z,14.34
2019-04-16T10:27:17.373Z,14.52
2019-04-16T10:29:51.090Z,14.61
2019-04-16T10:32:27.251Z,14.56
2019-04-16T10:35:01.571Z,14.65
2019-04-16T10:37:36.190Z,14.93
2019-04-16T10:40:22.212Z,15.07
2019-04-16T10:43:43.959Z,14.85
2019-04-16T10:46:22.391Z,14.65
2019-04-16T10:49:12.178Z,14.65
2019-04-16T10:52:03.906Z,14.67
2019-04-16T10:54:45.745Z,14.66
2019-04-16T10:57:44.277Z,15.28
2019-04-16T11:00:44.730Z,15.05
2019-04-16T11:03:28.647Z,15.00
2019-04-16T11:06:11.326Z,15.07
2019-04-16T11:08:47.102Z,15.04
2019-04-16T11:11:24.053Z,14.72
2019-04-16T11:13:59.975Z,15.31
2019-04-16T11:16:35.959Z,15.03
2019-04-16T11:19:11.470Z,15.15
2019-04-16T11:21:45.286Z,15.32
2019-04-16T11:24:20.611Z,15.18
2019-04-16T11:26:54.351Z,15.13
2019-04-16T11:29:27.995Z,15.27
2019-04-16T11:32:03.833Z,15.31
2019-04-16T11:34:37.546Z,15.28
2019-04-16T11:37:12.382Z,15.13
2019-04-16T11:39:46.260Z,15.04
2019-04-16T11:42:20.188Z,15.47
2019-04-16T11:44:55.005Z,15.65
2019-04-16T11:47:33.859Z,15.68
2019-04-16T11:50:05.618Z,15.77
2019-04-16T11:52:40.032Z,15.31
2019-04-16T11:55:14.144Z,15.43
2019-04-16T11:57:48.364Z,15.95
2019-04-16T12:00:45.020Z,16.11
2019-04-16T12:03:28.296Z,16.05
2019-04-16T12:06:27.804Z,15.91
2019-04-16T12:09:28.911Z,15.65
2019-04-16T12:12:24.253Z,15.75
2019-04-16T12:15:31.429Z,15.99
2019-04-16T12:18:32.114Z,16.05
2019-04-16T12:21:20.550Z,15.91
2019-04-16T12:24:03.977Z,16.04
2019-04-16T12:27:05.709Z,16.07
2019-04-16T12:30:12.483Z,16.07
2019-04-16T12:33:07.485Z,16.10
2019-04-16T12:36:05.799Z,16.17
2019-04-16T12:38:44.193Z,16.25
2019-04-16T12:41:35.483Z,16.34
2019-04-16T12:44:45.719Z,16.52
2019-04-16T12:47:58.871Z,16.17
2019-04-16T12:50:48.019Z,16.54
2019-04-16T12:53:54.064Z,16.72
2019-04-16T12:56:45.564Z,17.02
2019-04-16T12:59:30.026Z,16.78
2019-04-16T13:02:35.824Z,16.63
2019-04-16T13:05:20.861Z,16.46
2019-04-16T13:08:15.146Z,16.48
2019-04-16T13:11:11.805Z,16.26
2019-04-16T13:14:05.132Z,16.74
2019-04-16T13:17:08.131Z,16.59
2019-04-16T13:19:50.815Z,16.52
2019-04-16T13:22:28.606Z,16.69
2019-04-16T13:25:13.269Z,16.61
2019-04-16T13:27:47.856Z,16.67
2019-04-16T13:30:23.184Z,16.93
2019-04-16T13:32:57.000Z,17.06
2019-04-16T13:35:31.875Z,17.04
2019-04-16T13:38:09.262Z,17.01
2019-04-16T13:40:41.612Z,17.09
2019-04-16T13:43:20.330Z,16.62
2019-04-16T13:45:57.948Z,16.90
2019-04-16T13:48:37.489Z,16.72
2019-04-16T13:51:18.686Z,16.87
2019-04-16T13:54:09.712Z,17.10
2019-04-16T13:56:51.592Z,17.12
2019-04-16T14:00:03.066Z,17.22
2019-04-16T14:02:43.042Z,17.22
2019-04-16T14:05:16.786Z,17.23
2019-04-16T14:07:50.594Z,17.10
2019-04-16T14:10:27.483Z,17.28
2019-04-16T14:13:01.365Z,16.88
2019-04-16T14:15:40.267Z,16.60
2019-04-16T14:18:13.633Z,16.80
2019-04-16T14:20:48.960Z,16.99
2019-04-16T14:23:24.560Z,17.07
2019-04-16T14:25:58.674Z,17.20
2019-04-16T14:28:40.152Z,16.78
2019-04-16T14:31:10.824Z,16.80
2019-04-16T14:34:03.902Z,16.79
2019-04-16T14:36:37.662Z,16.81
2019-04-16T14:39:31.867Z,16.69
2019-04-16T14:42:07.372Z,16.71
2019-04-16T14:44:45.708Z,16.94
2019-04-16T14:47:19.723Z,16.73
2019-04-16T14:49:54.526Z,16.85
2019-04-16T14:52:28.168Z,16.85
2019-04-16T14:55:12.694Z,16.78
2019-04-16T14:58:23.361Z,16.55
2019-04-16T15:01:28.561Z,16.65
2019-04-16T15:04:19.579Z,16.66
2019-04-16T15:07:16.109Z,16.82
2019-04-16T15:10:11.403Z,16.56
2019-04-16T15:13:04.002Z,16.60
2019-04-16T15:15:40.982Z,16.65
2019-04-16T15:18:36.633Z,16.73
2019-04-16T15:21:43.918Z,16.73
2019-04-16T15:24:35.825Z,16.92
2019-04-16T15:27:31.597Z,16.57
2019-04-16T15:30:30.818Z,16.43
2019-04-16T15:33:30.941Z,16.16
2019-04-16T15:36:10.563Z,16.19
2019-04-16T15:39:08.950Z,16.34
2019-04-16T15:42:01.785Z,16.51
2019-04-16T15:44:42.957Z,16.43
2019-04-16T15:47:42.860Z,16.58
2019-04-16T15:50:35.209Z,16.43
2019-04-16T15:53:10.708Z,16.37
2019-04-16T15:55:51.907Z,16.32
2019-04-16T15:58:38.197Z,16.13
2019-04-16T16:01:21.847Z,15.92
2019-04-16T16:04:15.118Z,16.18
2019-04-16T16:06:58.620Z,16.11
2019-04-16T16:09:51.252Z,16.08
2019-04-16T16:12:29.031Z,15.97
2019-04-16T16:15:07.528Z,15.88
2019-04-16T16:17:40.358Z,16.00
2019-04-16T16:20:15.636Z,16.00
2019-04-16T16:22:50.733Z,16.14
2019-04-16T16:25:24.693Z,15.97
2019-04-16T16:28:00.290Z,15.88
2019-04-16T16:30:34.558Z,15.98
2019-04-16T16:33:08.282Z,15.95
2019-04-16T16:35:57.110Z,15.81
2019-04-16T16:38:20.787Z,15.76
2019-04-16T16:40:54.966Z,15.68
2019-04-16T16:43:28.631Z,15.67
2019-04-16T16:46:24.172Z,15.78
2019-04-16T16:48:59.517Z,15.63
2019-04-16T16:51:35.907Z,15.56
2019-04-16T16:54:23.197Z,15.67
2019-04-16T16:57:08.138Z,15.48
2019-04-16T16:59:59.525Z,15.33
2019-04-16T17:02:56.853Z,15.33
2019-04-16T17:05:33.311Z,15.29
2019-04-16T17:08:08.863Z,15.19
2019-04-16T17:10:44.545Z,15.17
2019-04-16T17:13:21.013Z,15.23
2019-04-16T17:15:53.764Z,15.12
2019-04-16T17:18:27.576Z,15.04
2019-04-16T17:21:02.884Z,14.87
2019-04-16T17:23:40.977Z,14.99
2019-04-16T17:26:16.775Z,14.86
2019-04-16T17:28:50.663Z,14.84
2019-04-16T17:31:24.765Z,14.81
2019-04-16T17:34:00.606Z,14.79
2019-04-16T17:36:36.702Z,14.77
2019-04-16T17:39:12.762Z,14.79
2019-04-16T17:41:59.473Z,14.70
2019-04-16T17:44:57.916Z,14.61
2019-04-16T17:47:49.827Z,14.48
2019-04-16T17:50:39.704Z,14.40
2019-04-16T17:53:25.506Z,14.45
2019-04-16T17:56:35.721Z,14.36
2019-04-16T17:59:12.800Z,14.21
2019-04-16T18:02:04.723Z,14.10
2019-04-16T18:04:59.864Z,14.09
2019-04-16T18:08:03.093Z,13.90
2019-04-16T18:10:58.713Z,13.88
2019-04-16T18:14:05.095Z,13.80
2019-04-16T18:16:50.083Z,13.65
2019-04-16T18:19:48.123Z,13.52
2019-04-16T18:22:45.019Z,13.46
2019-04-16T18:25:55.633Z,13.37
2019-04-16T18:28:26.911Z,13.38
2019-04-16T18:31:23.540Z,13.33
2019-04-16T18:34:08.812Z,13.31
2019-04-16T18:36:58.896Z,13.13
2019-04-16T18:39:50.506Z,13.20
2019-04-16T18:42:40.790Z,13.05
2019-04-16T18:45:42.939Z,13.00
2019-04-16T18:48:23.435Z,12.95
2019-04-16T18:51:00.291Z,12.86
2019-04-16T18:53:33.548Z,12.81
2019-04-16T18:56:07.242Z,12.75
2019-04-16T18:58:41.799Z,12.60
2019-04-16T19:01:24.914Z,12.57
2019-04-16T19:03:59.009Z,12.56
2019-04-16T19:06:34.395Z,12.41
2019-04-16T19:09:10.092Z,12.28
2019-04-16T19:11:45.085Z,12.29
2019-04-16T19:14:19.259Z,12.24
2019-04-16T19:16:53.709Z,12.26
2019-04-16T19:19:30.444Z,12.28
2019-04-16T19:22:04.529Z,12.19
2019-04-16T19:24:38.393Z,12.07
2019-04-16T19:27:12.212Z,12.15
2019-04-16T19:29:46.169Z,12.05
2019-04-16T19:32:21.368Z,12.15
2019-04-16T19:35:08.823Z,12.09
2019-04-16T19:37:36.740Z,11.92
2019-04-16T19:40:11.380Z,11.97
2019-04-16T19:42:46.731Z,11.94
2019-04-16T19:45:25.985Z,11.96
2019-04-16T19:48:02.123Z,11.91
2019-04-16T19:50:37.300Z,11.94
2019-04-16T19:53:14.922Z,12.00
2019-04-16T19:55:48.914Z,11.95
2019-04-16T19:58:25.983Z,11.91
2019-04-16T20:01:00.497Z,11.83
2019-04-16T20:03:35.593Z,11.86
2019-04-16T20:06:11.484Z,11.79
2019-04-16T20:08:45.550Z,11.94
2019-04-16T20:11:21.965Z,11.84
2019-04-16T20:14:01.471Z,11.84
2019-04-16T20:16:36.916Z,11.86
2019-04-16T20:19:11.711Z,11.77
2019-04-16T20:21:47.010Z,11.67
2019-04-16T20:24:21.145Z,11.58
2019-04-16T20:26:55.629Z,11.60
2019-04-16T20:29:29.662Z,11.66
2019-04-16T20:32:04.922Z,11.49
2019-04-16T20:34:42.404Z,11.48
2019-04-16T20:37:14.946Z,11.51
2019-04-16T20:39:50.020Z,11.44
2019-04-16T20:42:23.941Z,11.47
2019-04-16T20:44:58.432Z,11.45
2019-04-16T20:47:32.300Z,11.37
2019-04-16T20:50:07.565Z,11.32
2019-04-16T20:52:41.618Z,11.30
2019-04-16T20:55:16.737Z,11.15
2019-04-16T20:57:55.231Z,10.99
2019-04-16T21:00:30.629Z,11.02
2019-04-16T21:03:04.822Z,10.91
2019-04-16T21:05:38.882Z,10.89
2019-04-16T21:08:12.725Z,10.82
2019-04-16T21:10:46.829Z,10.74
2019-04-16T21:13:22.040Z,10.90
2019-04-16T21:15:57.319Z,10.77
2019-04-16T21:18:31.452Z,10.73
2019-04-16T21:21:05.255Z,10.77
2019-04-16T21:23:40.722Z,10.74
2019-04-16T21:26:16.525Z,10.74
2019-04-16T21:29:06.939Z,10.74
2019-04-16T21:31:44.669Z,10.77
2019-04-16T21:34:40.596Z,10.67
2019-04-16T21:37:23.292Z,10.63
2019-04-16T21:39:59.218Z,10.56
2019-04-16T21:42:34.836Z,10.61
2019-04-16T21:45:10.108Z,10.53
2019-04-16T21:47:45.362Z,10.48
2019-04-16T21:50:20.145Z,10.51
2019-04-16T21:52:56.570Z,10.55
2019-04-16T21:55:32.755Z,10.47
2019-04-16T21:58:07.640Z,10.40
2019-04-16T22:01:18.911Z,10.47
2019-04-16T22:04:06.863Z,10.54
2019-04-16T22:06:42.291Z,10.55
2019-04-16T22:09:15.990Z,10.52
2019-04-16T22:11:49.741Z,10.56
2019-04-16T22:14:23.687Z,10.40
2019-04-16T22:16:59.938Z,10.33
2019-04-16T22:19:37.149Z,10.27
2019-04-16T22:22:11.679Z,10.29
2019-04-16T22:24:46.985Z,10.28
2019-04-16T22:27:20.814Z,10.17
2019-04-16T22:29:55.068Z,10.25
2019-04-16T22:32:30.908Z,10.18
2019-04-16T22:35:04.302Z,10.06
2019-04-16T22:37:39.765Z,10.02
2019-04-16T22:40:28.020Z,9.95
2019-04-16T22:43:28.594Z,9.93
2019-04-16T22:46:08.948Z,9.88
2019-04-16T22:48:58.393Z,9.78
2019-04-16T22:51:32.226Z,9.81
2019-04-16T22:54:05.991Z,9.80
2019-04-16T22:56:51.716Z,9.89
2019-04-16T22:59:27.877Z,9.76
2019-04-16T23:02:02.563Z,9.78
2019-04-16T23:04:38.765Z,9.77
2019-04-16T23:07:13.012Z,9.69
2019-04-16T23:09:48.674Z,9.71
2019-04-16T23:12:28.143Z,9.54
2019-04-16T23:15:05.560Z,9.45
2019-04-16T23:17:42.921Z,9.50
2019-04-16T23:20:29.322Z,9.39
2019-04-16T23:22:57.136Z,9.36
2019-04-16T23:25:32.867Z,9.31
2019-04-16T23:28:10.646Z,9.37
2019-04-16T23:30:44.475Z,9.33
2019-04-16T23:33:21.060Z,9.36
2019-04-16T23:35:55.465Z,9.32
2019-04-16T23:38:32.226Z,9.12
2019-04-16T23:41:06.653Z,9.19
2019-04-16T23:43:54.896Z,9.03
2019-04-16T23:47:09.519Z,8.95
2019-04-16T23:50:08.847Z,9.11
2019-04-16T23:52:47.772Z,8.98
2019-04-16T23:55:39.486Z,8.96
2019-04-16T23:58:20.953Z,8.86
